Kirby, Ohio
Current Conditions -  °F | °C
As of 2:53 AM on Thursday 29 Jan 2015 (Local Time) from KFDY Reporting Station
Overcast Overcast  
Wind Chill: 16°   Ceiling: 8500
Heat Index: 29°   Visibility: 10mi
Dew Point: 18°   Wind: 20mph
Humidity: 64%   Direction: 160°SSE
Pressure: 30"   Gusts: NA
Location:  40.81°N, 83.42°W
Report Text: KFDY 290753Z AUTO 16017KT 10SM OVC085 M02/M08 A3000 RMK AO2 SLP165 T10171078
Loading
Personal Weather Stations






























Interactive Weather Map New forecast layout! Learn more

10-Day Weather Forecast

Advertisements
Track Severe Weather on mobile